createdAt,value
2022-07-27T00:01:51.172Z,101620.06
2022-07-27T00:04:19.105Z,101614.22
2022-07-27T00:06:46.382Z,101614.25
2022-07-27T00:09:13.117Z,101611.06
2022-07-27T00:11:39.793Z,101616.47
2022-07-27T00:14:06.335Z,101624.72
2022-07-27T00:16:33.035Z,101628.31
2022-07-27T00:19:00.231Z,101624.44
2022-07-27T00:21:26.808Z,101628.09
2022-07-27T00:23:54.444Z,101618.28
2022-07-27T00:26:21.200Z,101622.38
2022-07-27T00:28:48.482Z,101621.16
2022-07-27T00:31:15.143Z,101620.31
2022-07-27T00:33:41.713Z,101622.69
2022-07-27T00:36:08.551Z,101618.84
2022-07-27T00:38:35.120Z,101617.78
2022-07-27T00:41:01.654Z,101613.31
2022-07-27T00:43:28.133Z,101617.28
2022-07-27T00:45:54.577Z,101617.41
2022-07-27T00:48:21.317Z,101625.38
2022-07-27T00:50:48.359Z,101625.16
2022-07-27T00:53:15.235Z,101618.72
2022-07-27T00:55:42.275Z,101613.03
2022-07-27T00:58:09.014Z,101615.00
2022-07-27T01:00:37.417Z,101610.03
2022-07-27T01:03:08.731Z,101606.72
2022-07-27T01:05:42.520Z,101609.56
2022-07-27T01:08:12.506Z,101623.31
2022-07-27T01:10:40.711Z,101611.44
2022-07-27T01:13:12.291Z,101610.50
2022-07-27T01:15:40.702Z,101615.97
2022-07-27T01:18:11.804Z,101614.69
2022-07-27T01:20:40.386Z,101615.56
2022-07-27T01:23:06.857Z,101617.78
2022-07-27T01:25:33.367Z,101619.97
2022-07-27T01:27:59.819Z,101613.03
2022-07-27T01:30:26.462Z,101610.63
2022-07-27T01:33:07.959Z,101622.22
2022-07-27T01:35:35.283Z,101609.69
2022-07-27T01:38:01.965Z,101603.28
2022-07-27T01:40:28.483Z,101605.75
2022-07-27T01:42:55.225Z,101602.88
2022-07-27T01:45:22.347Z,101606.25
2022-07-27T01:47:48.949Z,101597.38
2022-07-27T01:50:15.533Z,101601.22
2022-07-27T01:52:41.995Z,101604.78
2022-07-27T01:55:10.400Z,101607.41
2022-07-27T01:57:37.154Z,101609.88
2022-07-27T02:00:10.976Z,101597.75
2022-07-27T02:02:38.292Z,101602.34
2022-07-27T02:05:06.070Z,101608.66
2022-07-27T02:07:32.543Z,101601.91
2022-07-27T02:09:59.001Z,101597.31
2022-07-27T02:12:37.658Z,101600.53
2022-07-27T02:15:08.221Z,101598.75
2022-07-27T02:17:43.571Z,101597.41
2022-07-27T02:20:10.283Z,101590.19
2022-07-27T02:22:37.513Z,101596.72
2022-07-27T02:25:05.137Z,101600.63
2022-07-27T02:27:31.851Z,101605.19
2022-07-27T02:29:58.349Z,101588.81
2022-07-27T02:32:25.207Z,101603.06
2022-07-27T02:34:52.138Z,101601.09
2022-07-27T02:37:18.661Z,101596.00
2022-07-27T02:39:45.119Z,101599.47
2022-07-27T02:42:11.641Z,101597.19
2022-07-27T02:44:39.857Z,101599.63
2022-07-27T02:47:06.425Z,101592.56
2022-07-27T02:49:32.917Z,101597.88
2022-07-27T02:51:59.396Z,101593.53
2022-07-27T02:54:25.932Z,101592.38
2022-07-27T02:56:53.480Z,101599.63
2022-07-27T02:59:20.822Z,101601.78
2022-07-27T03:01:48.717Z,101601.59
2022-07-27T03:04:15.869Z,101589.78
2022-07-27T03:06:43.272Z,101601.91
2022-07-27T03:09:10.414Z,101605.59
2022-07-27T03:11:37.233Z,101599.81
2022-07-27T03:14:03.865Z,101604.09
2022-07-27T03:16:30.397Z,101602.75
2022-07-27T03:18:57.877Z,101601.34
2022-07-27T03:21:24.977Z,101606.16
2022-07-27T03:23:51.528Z,101599.47
2022-07-27T03:26:19.175Z,101596.38
2022-07-27T03:28:45.801Z,101614.59
2022-07-27T03:31:12.399Z,101609.31
2022-07-27T03:33:38.941Z,101610.63
2022-07-27T03:36:05.862Z,101613.28
2022-07-27T03:38:32.336Z,101621.63
2022-07-27T03:40:59.886Z,101615.19
2022-07-27T03:43:26.346Z,101617.50
2022-07-27T03:45:52.875Z,101620.06
2022-07-27T03:48:19.368Z,101620.06
2022-07-27T03:50:45.813Z,101614.19
2022-07-27T03:53:12.274Z,101613.31
2022-07-27T03:55:38.809Z,101616.56
2022-07-27T03:58:05.296Z,101611.94
2022-07-27T04:00:31.829Z,101610.56
2022-07-27T04:02:58.407Z,101612.81
2022-07-27T04:05:25.616Z,101606.84
2022-07-27T04:07:56.094Z,101603.56
2022-07-27T04:10:23.774Z,101604.63
2022-07-27T04:12:52.234Z,101610.50
2022-07-27T04:15:19.089Z,101612.56
2022-07-27T04:17:55.653Z,101615.00
2022-07-27T04:20:24.393Z,101604.16
2022-07-27T04:22:50.967Z,101607.19
2022-07-27T04:25:17.471Z,101601.75
2022-07-27T04:27:44.013Z,101600.78
2022-07-27T04:30:11.375Z,101596.38
2022-07-27T04:32:37.958Z,101593.13
2022-07-27T04:35:05.424Z,101605.81
2022-07-27T04:37:33.164Z,101599.69
2022-07-27T04:40:00.342Z,101604.03
2022-07-27T04:42:27.093Z,101608.03
2022-07-27T04:44:53.558Z,101612.03
2022-07-27T04:47:20.067Z,101622.91
2022-07-27T04:49:46.574Z,101622.59
2022-07-27T04:52:15.966Z,101619.41
2022-07-27T04:54:43.112Z,101621.53
2022-07-27T04:57:09.761Z,101614.91
2022-07-27T04:59:36.392Z,101619.56
2022-07-27T05:02:03.627Z,101611.97
2022-07-27T05:04:30.457Z,101599.75
2022-07-27T05:06:57.754Z,101605.31
2022-07-27T05:09:24.288Z,101612.94
2022-07-27T05:11:51.669Z,101612.75
2022-07-27T05:14:19.784Z,101609.28
2022-07-27T05:16:48.854Z,101610.44
2022-07-27T05:19:15.688Z,101612.84
2022-07-27T05:21:42.842Z,101619.13
2022-07-27T05:24:10.082Z,101619.63
2022-07-27T05:26:37.472Z,101623.00
2022-07-27T05:29:04.164Z,101632.94
2022-07-27T05:31:30.675Z,101636.44
2022-07-27T05:33:58.499Z,101639.94
2022-07-27T05:36:25.485Z,101625.03
2022-07-27T05:38:51.982Z,101630.44
2022-07-27T05:41:25.642Z,101634.41
2022-07-27T05:43:54.492Z,101637.66
2022-07-27T05:46:21.991Z,101636.03
2022-07-27T05:48:49.114Z,101638.31
2022-07-27T05:51:15.687Z,101651.66
2022-07-27T05:53:42.157Z,101650.56
2022-07-27T05:56:08.614Z,101641.09
2022-07-27T05:58:35.371Z,101649.66
2022-07-27T06:01:02.048Z,101669.63
2022-07-27T06:03:29.025Z,101661.44
2022-07-27T06:06:15.544Z,101657.88
2022-07-27T06:08:42.097Z,101664.50
2022-07-27T06:11:08.638Z,101660.13
2022-07-27T06:13:36.611Z,101669.34
2022-07-27T06:16:04.254Z,101671.44
2022-07-27T06:18:31.078Z,101677.72
2022-07-27T06:20:59.176Z,101676.38
2022-07-27T06:23:26.085Z,101678.53
2022-07-27T06:25:52.531Z,101687.84
2022-07-27T06:28:19.296Z,101680.16
2022-07-27T06:30:46.672Z,101682.28
2022-07-27T06:33:14.243Z,101675.84
2022-07-27T06:35:42.039Z,101674.56
2022-07-27T06:38:10.171Z,101686.25
2022-07-27T06:40:36.684Z,101689.16
2022-07-27T06:43:03.609Z,101694.81
2022-07-27T06:45:30.160Z,101695.53
2022-07-27T06:47:57.581Z,101695.13
2022-07-27T06:50:24.207Z,101695.66
2022-07-27T06:52:50.988Z,101700.59
2022-07-27T06:55:17.779Z,101708.22
2022-07-27T06:57:46.176Z,101695.13
2022-07-27T07:00:12.793Z,101699.69
2022-07-27T07:02:58.552Z,101697.13
2022-07-27T07:05:25.922Z,101694.34
2022-07-27T07:07:53.340Z,101710.41
2022-07-27T07:10:20.453Z,101705.44
2022-07-27T07:12:55.301Z,101711.75
2022-07-27T07:15:23.856Z,101724.50
2022-07-27T07:17:50.497Z,101715.69
2022-07-27T07:20:16.988Z,101728.63
2022-07-27T07:22:43.528Z,101717.69
2022-07-27T07:25:10.272Z,101716.19
2022-07-27T07:27:36.767Z,101709.34
2022-07-27T07:30:04.743Z,101728.44
2022-07-27T07:32:33.516Z,101721.09
2022-07-27T07:35:01.434Z,101726.66
2022-07-27T07:37:33.416Z,101715.38
2022-07-27T07:40:25.308Z,101724.00
2022-07-27T07:43:00.038Z,101694.72
2022-07-27T07:45:28.140Z,101697.53
2022-07-27T07:47:55.521Z,101717.53
2022-07-27T07:50:23.487Z,101699.97
2022-07-27T07:52:51.764Z,101695.31
2022-07-27T07:55:21.390Z,101690.78
2022-07-27T07:57:48.268Z,101686.41
2022-07-27T08:00:17.979Z,101684.34
2022-07-27T08:02:45.654Z,101707.50
2022-07-27T08:05:12.835Z,101706.28
2022-07-27T08:07:40.170Z,101719.09
2022-07-27T08:10:08.314Z,101722.19
2022-07-27T08:12:36.800Z,101720.69
2022-07-27T08:15:06.094Z,101730.75
2022-07-27T08:17:32.694Z,101731.69
2022-07-27T08:19:59.298Z,101734.91
2022-07-27T08:22:26.061Z,101731.56
2022-07-27T08:24:52.825Z,101749.16
2022-07-27T08:27:19.387Z,101737.44
2022-07-27T08:29:45.899Z,101731.44
2022-07-27T08:32:18.487Z,101747.06
2022-07-27T08:34:45.165Z,101729.78
2022-07-27T08:37:15.415Z,101737.22
2022-07-27T08:40:37.449Z,101738.63
2022-07-27T08:42:29.632Z,101746.47
2022-07-27T08:44:56.257Z,101752.41
2022-07-27T08:47:23.368Z,101751.88
2022-07-27T08:49:52.948Z,101740.59
2022-07-27T08:52:20.275Z,101756.09
2022-07-27T08:54:47.504Z,101766.28
2022-07-27T08:57:15.194Z,101778.88
2022-07-27T08:59:41.666Z,101782.31
2022-07-27T09:02:13.501Z,101773.28
2022-07-27T09:04:41.199Z,101778.63
2022-07-27T09:07:07.914Z,101765.06
2022-07-27T09:09:46.201Z,101768.72
2022-07-27T09:12:12.821Z,101766.31
2022-07-27T09:14:41.616Z,101790.84
2022-07-27T09:20:19.953Z,101775.06
2022-07-27T09:22:52.637Z,101777.13
2022-07-27T09:25:52.559Z,101783.84
2022-07-27T09:28:29.172Z,101771.41
2022-07-27T09:30:55.678Z,101743.63
2022-07-27T09:33:22.206Z,101752.16
2022-07-27T09:35:58.240Z,101757.03
2022-07-27T09:38:25.080Z,101768.00
2022-07-27T09:41:02.701Z,101774.81
2022-07-27T09:46:16.423Z,101762.03
2022-07-27T09:48:43.239Z,101767.41
2022-07-27T09:54:05.801Z,101788.81
2022-07-27T09:56:32.878Z,101772.72
2022-07-27T09:59:02.116Z,101765.44
2022-07-27T10:01:35.287Z,101768.53
2022-07-27T10:04:05.091Z,101754.13
2022-07-27T10:06:47.742Z,101769.28
2022-07-27T10:09:19.999Z,101773.94
2022-07-27T10:11:49.409Z,101780.78
2022-07-27T10:14:16.662Z,101792.19
2022-07-27T10:16:47.466Z,101799.78
2022-07-27T10:19:37.052Z,101771.75
2022-07-27T10:22:03.682Z,101767.06
2022-07-27T10:24:34.749Z,101760.34
2022-07-27T10:27:30.418Z,101758.84
2022-07-27T10:29:57.598Z,101759.09
2022-07-27T10:32:31.296Z,101752.25
2022-07-27T10:34:58.758Z,101759.47
2022-07-27T10:37:33.137Z,101776.81
2022-07-27T10:40:36.497Z,101782.53
2022-07-27T10:43:29.498Z,101780.19
2022-07-27T10:46:01.583Z,101745.53
2022-07-27T10:48:45.873Z,101728.31
2022-07-27T10:51:16.582Z,101723.19
2022-07-27T10:54:12.658Z,101727.59
2022-07-27T10:56:47.015Z,101729.75
2022-07-27T10:59:13.864Z,101714.16
2022-07-27T11:01:59.121Z,101682.19
2022-07-27T11:04:26.144Z,101684.06
2022-07-27T11:10:07.639Z,101709.28
2022-07-27T11:12:36.621Z,101713.59
2022-07-27T11:15:04.047Z,101693.84
2022-07-27T11:20:23.065Z,101673.03
2022-07-27T11:25:36.187Z,101637.72
2022-07-27T11:28:07.516Z,101607.16
2022-07-27T11:30:34.239Z,101596.00
2022-07-27T11:33:04.817Z,101653.88
2022-07-27T11:35:31.543Z,101630.66
2022-07-27T11:38:03.169Z,101646.00
2022-07-27T11:41:12.690Z,101622.09
2022-07-27T11:43:45.688Z,101547.81
2022-07-27T11:46:27.786Z,101565.84
2022-07-27T11:49:12.853Z,101591.13
2022-07-27T11:51:42.395Z,101620.88
2022-07-27T11:54:23.357Z,101624.66
2022-07-27T11:56:53.370Z,101591.88
2022-07-27T11:59:30.490Z,101567.91
2022-07-27T12:02:05.875Z,101507.66
2022-07-27T12:04:38.124Z,101463.25
2022-07-27T12:07:15.768Z,101475.13
2022-07-27T12:09:49.842Z,101440.66
2022-07-27T12:12:27.112Z,101484.28
2022-07-27T12:14:57.155Z,101548.94
2022-07-27T12:17:34.250Z,101605.47
2022-07-27T12:20:09.979Z,101606.97
2022-07-27T12:22:49.095Z,101650.59
2022-07-27T12:25:18.518Z,101641.81
2022-07-27T12:27:57.207Z,101541.28
2022-07-27T12:30:36.061Z,101622.59
2022-07-27T12:33:05.025Z,101619.94
2022-07-27T12:35:46.493Z,101543.69
2022-07-27T12:38:13.719Z,101624.25
2022-07-27T12:41:00.532Z,101687.38
2022-07-27T12:43:27.640Z,101727.59
2022-07-27T12:45:55.791Z,101743.91
2022-07-27T12:48:37.561Z,101754.22
2022-07-27T12:51:06.883Z,101738.47
2022-07-27T12:53:34.861Z,101691.25
2022-07-27T12:56:06.512Z,101671.06
2022-07-27T12:58:33.453Z,101687.44
2022-07-27T13:01:00.105Z,101706.47
2022-07-27T13:03:26.773Z,101736.88
2022-07-27T13:05:53.396Z,101734.06
2022-07-27T13:08:20.069Z,101726.19
2022-07-27T13:10:48.465Z,101621.31
2022-07-27T13:13:15.268Z,101611.56
2022-07-27T13:15:41.945Z,101636.13
2022-07-27T13:18:08.943Z,101684.19
2022-07-27T13:20:36.977Z,101659.94
2022-07-27T13:23:07.299Z,101678.97
2022-07-27T13:25:33.875Z,101684.81
2022-07-27T13:28:00.571Z,101707.22
2022-07-27T13:30:27.110Z,101760.56
2022-07-27T13:32:53.933Z,101769.09
2022-07-27T13:35:20.552Z,101772.28
2022-07-27T13:37:47.139Z,101771.22
2022-07-27T13:40:14.057Z,101773.66
2022-07-27T13:42:40.704Z,101713.69
2022-07-27T13:45:10.874Z,101656.31
2022-07-27T13:47:40.093Z,101700.31
2022-07-27T13:50:17.796Z,101744.53
2022-07-27T13:52:47.335Z,101766.66
2022-07-27T13:55:17.544Z,101818.91
2022-07-27T13:57:44.893Z,101830.81
2022-07-27T14:00:15.555Z,101843.31
2022-07-27T14:02:42.920Z,101831.97
2022-07-27T14:05:13.118Z,101851.72
2022-07-27T14:07:40.708Z,101875.81
2022-07-27T14:10:26.631Z,101876.41
2022-07-27T14:12:58.832Z,101867.63
2022-07-27T14:15:25.753Z,101897.63
2022-07-27T14:17:52.271Z,101881.00
2022-07-27T14:20:21.893Z,101871.66
2022-07-27T14:22:48.418Z,101853.44
2022-07-27T14:25:15.194Z,101842.56
2022-07-27T14:27:41.735Z,101839.88
2022-07-27T14:30:09.535Z,101829.31
2022-07-27T14:32:36.333Z,101852.47
2022-07-27T14:35:03.892Z,101837.06
2022-07-27T14:37:30.481Z,101811.63
2022-07-27T14:39:56.952Z,101843.81
2022-07-27T14:42:24.990Z,101872.63
2022-07-27T14:44:54.416Z,101862.38
2022-07-27T14:47:20.949Z,101861.50
2022-07-27T14:49:49.602Z,101847.63
2022-07-27T14:52:18.714Z,101832.28
2022-07-27T14:54:47.119Z,101808.94
2022-07-27T14:57:14.377Z,101809.91
2022-07-27T14:59:44.587Z,101837.09
2022-07-27T15:02:14.187Z,101839.38
2022-07-27T15:04:41.029Z,101850.88
2022-07-27T15:07:07.793Z,101870.91
2022-07-27T15:09:34.321Z,101872.16
2022-07-27T15:12:04.062Z,101870.63
2022-07-27T15:14:38.789Z,101856.63
2022-07-27T15:17:06.454Z,101834.84
2022-07-27T15:19:33.031Z,101845.53
2022-07-27T15:21:59.676Z,101852.75
2022-07-27T15:24:26.925Z,101852.44
2022-07-27T15:26:53.417Z,101848.53
2022-07-27T15:29:19.886Z,101863.94
2022-07-27T15:31:46.816Z,101859.22
2022-07-27T15:34:14.668Z,101862.59
2022-07-27T15:36:47.218Z,101876.00
2022-07-27T15:39:21.677Z,101861.50
2022-07-27T15:41:48.264Z,101834.59
2022-07-27T15:44:22.599Z,101832.66
2022-07-27T15:46:49.421Z,101767.59
2022-07-27T15:49:16.482Z,101769.50
2022-07-27T15:51:43.665Z,101805.41
2022-07-27T15:54:10.216Z,101844.63
2022-07-27T15:56:40.599Z,101861.78
2022-07-27T15:59:07.066Z,101863.25
2022-07-27T16:01:35.869Z,101884.34
2022-07-27T16:04:03.476Z,101840.50
2022-07-27T16:06:34.011Z,101813.91
2022-07-27T16:09:04.337Z,101841.00
2022-07-27T16:11:31.033Z,101846.34
2022-07-27T16:13:57.540Z,101854.91
2022-07-27T16:16:30.288Z,101860.78
2022-07-27T16:19:01.014Z,101864.97
2022-07-27T16:21:54.018Z,101876.13
2022-07-27T16:24:22.390Z,101883.50
2022-07-27T16:26:48.940Z,101898.13
2022-07-27T16:29:15.930Z,101895.78
2022-07-27T16:31:49.360Z,101897.06
2022-07-27T16:34:15.846Z,101884.25
2022-07-27T16:36:42.319Z,101882.16
2022-07-27T16:39:08.857Z,101860.84
2022-07-27T16:41:35.338Z,101829.00
2022-07-27T16:44:01.856Z,101827.81
2022-07-27T16:46:28.385Z,101831.47
2022-07-27T16:48:54.965Z,101834.13
2022-07-27T16:51:21.587Z,101848.38
2022-07-27T16:53:48.351Z,101843.25
2022-07-27T16:56:15.143Z,101835.38
2022-07-27T16:58:41.788Z,101846.63
2022-07-27T17:01:09.128Z,101837.09
2022-07-27T17:03:36.549Z,101836.16
2022-07-27T17:06:06.472Z,101848.38
2022-07-27T17:08:34.392Z,101858.66
2022-07-27T17:11:02.639Z,101859.09
2022-07-27T17:13:33.757Z,101855.22
2022-07-27T17:16:03.085Z,101868.09
2022-07-27T17:18:29.801Z,101869.50
2022-07-27T17:21:02.910Z,101880.09
2022-07-27T17:23:33.489Z,101874.97
2022-07-27T17:25:59.938Z,101873.16
2022-07-27T17:28:26.636Z,101857.78
2022-07-27T17:30:53.198Z,101854.13
2022-07-27T17:33:19.697Z,101841.41
2022-07-27T17:35:46.168Z,101841.41
2022-07-27T17:38:14.026Z,101846.50
2022-07-27T17:40:40.620Z,101857.06
2022-07-27T17:43:07.088Z,101864.78
2022-07-27T17:45:33.896Z,101860.16
2022-07-27T17:48:00.495Z,101859.84
2022-07-27T17:50:27.298Z,101870.03
2022-07-27T17:52:56.392Z,101875.59
2022-07-27T17:55:22.988Z,101876.44
2022-07-27T17:57:49.933Z,101891.34
2022-07-27T18:00:16.861Z,101901.25
2022-07-27T18:02:43.352Z,101925.47
2022-07-27T18:05:10.146Z,101911.09
2022-07-27T18:07:39.235Z,101919.84
2022-07-27T18:10:08.199Z,101923.88
2022-07-27T18:12:35.497Z,101917.53
2022-07-27T18:15:20.817Z,101917.19
2022-07-27T18:17:47.608Z,101926.41
2022-07-27T18:20:14.345Z,101932.84
2022-07-27T18:22:40.943Z,101930.56
2022-07-27T18:25:08.501Z,101931.81
2022-07-27T18:27:35.501Z,101942.72
2022-07-27T18:30:04.941Z,101938.84
2022-07-27T18:32:33.540Z,101938.16
2022-07-27T18:35:01.655Z,101949.94
2022-07-27T18:37:28.372Z,101943.47
2022-07-27T18:39:54.988Z,101949.31
2022-07-27T18:42:21.534Z,101951.72
2022-07-27T18:44:48.275Z,101965.50
2022-07-27T18:47:15.719Z,101967.50
2022-07-27T18:49:42.695Z,101965.38
2022-07-27T18:52:09.240Z,101963.56
2022-07-27T18:54:35.781Z,101974.66
2022-07-27T18:57:02.584Z,101984.00
2022-07-27T18:59:30.044Z,101996.88
2022-07-27T19:01:56.966Z,101997.56
2022-07-27T19:04:24.742Z,101991.44
2022-07-27T19:06:51.666Z,101977.50
2022-07-27T19:09:18.416Z,101987.78
2022-07-27T19:11:45.283Z,101994.53
2022-07-27T19:14:11.926Z,102000.16
2022-07-27T19:16:38.525Z,101990.13
2022-07-27T19:19:07.743Z,101980.59
2022-07-27T19:21:38.650Z,102001.56
2022-07-27T19:24:05.369Z,101993.16
2022-07-27T19:26:33.649Z,102005.31
2022-07-27T19:29:00.328Z,102006.81
2022-07-27T19:31:28.106Z,102017.78
2022-07-27T19:33:56.188Z,102023.97
2022-07-27T19:36:23.323Z,102018.16
2022-07-27T19:38:50.559Z,102022.44
2022-07-27T19:41:17.304Z,102026.16
2022-07-27T19:43:44.351Z,102030.19
2022-07-27T19:46:11.104Z,102038.81
2022-07-27T19:48:37.959Z,102032.28
2022-07-27T19:51:06.990Z,102037.63
2022-07-27T19:53:37.760Z,102042.84
2022-07-27T19:56:04.754Z,102049.38
2022-07-27T19:58:31.945Z,102047.47
2022-07-27T20:00:58.729Z,102051.06
2022-07-27T20:03:25.686Z,102052.69
2022-07-27T20:05:52.257Z,102050.34
2022-07-27T20:08:19.236Z,102040.28
2022-07-27T20:10:47.248Z,102050.25
2022-07-27T20:13:14.495Z,102050.97
2022-07-27T20:15:41.341Z,102054.09
2022-07-27T20:18:08.040Z,102051.13
2022-07-27T20:20:35.410Z,102066.00
2022-07-27T20:23:01.950Z,102053.19
2022-07-27T20:25:28.456Z,102056.22
2022-07-27T20:27:55.019Z,102060.09
2022-07-27T20:30:21.672Z,102054.72
2022-07-27T20:32:49.188Z,102059.69
2022-07-27T20:35:16.552Z,102057.88
2022-07-27T20:37:45.146Z,102050.81
2022-07-27T20:40:12.722Z,102051.50
2022-07-27T20:42:41.149Z,102058.22
2022-07-27T20:45:11.004Z,102062.13
2022-07-27T20:47:38.446Z,102060.72
2022-07-27T20:50:08.120Z,102058.03
2022-07-27T20:52:34.989Z,102057.78
2022-07-27T20:55:01.560Z,102043.56
2022-07-27T20:57:28.189Z,102051.66
2022-07-27T20:59:54.688Z,102059.44
2022-07-27T21:02:21.272Z,102066.66
2022-07-27T21:04:47.803Z,102068.91
2022-07-27T21:07:14.371Z,102060.22
2022-07-27T21:09:41.021Z,102057.16
2022-07-27T21:12:08.248Z,102048.22
2022-07-27T21:14:34.777Z,102056.47
2022-07-27T21:17:01.338Z,102063.41
2022-07-27T21:19:28.081Z,102072.69
2022-07-27T21:21:54.755Z,102076.31
2022-07-27T21:24:22.782Z,102076.84
2022-07-27T21:26:51.164Z,102079.59
2022-07-27T21:29:19.847Z,102079.03
2022-07-27T21:31:49.009Z,102082.06
2022-07-27T21:34:18.374Z,102093.69
2022-07-27T21:36:45.969Z,102100.25
2022-07-27T21:39:12.859Z,102106.38
2022-07-27T21:41:39.812Z,102112.03
2022-07-27T21:44:06.339Z,102103.34
2022-07-27T21:46:32.903Z,102112.03
2022-07-27T21:48:59.534Z,102101.13
2022-07-27T21:51:26.135Z,102104.38
2022-07-27T21:53:52.687Z,102106.78
2022-07-27T21:56:19.541Z,102102.31
2022-07-27T21:58:46.336Z,102101.72
2022-07-27T22:01:14.076Z,102092.84
2022-07-27T22:03:41.586Z,102101.44
2022-07-27T22:06:09.796Z,102105.50
2022-07-27T22:08:36.534Z,102101.72
2022-07-27T22:11:03.771Z,102102.16
2022-07-27T22:13:30.521Z,102109.53
2022-07-27T22:15:57.083Z,102108.59
2022-07-27T22:18:23.681Z,102107.97
2022-07-27T22:20:50.174Z,102115.19
2022-07-27T22:23:17.042Z,102114.28
2022-07-27T22:25:43.905Z,102122.91
2022-07-27T22:28:10.405Z,102130.13
2022-07-27T22:30:36.921Z,102125.38
2022-07-27T22:33:03.501Z,102124.47
2022-07-27T22:35:30.239Z,102132.31
2022-07-27T22:37:56.896Z,102131.84
2022-07-27T22:40:24.448Z,102131.03
2022-07-27T22:42:50.966Z,102128.38
2022-07-27T22:45:17.688Z,102128.72
2022-07-27T22:47:44.313Z,102131.38
2022-07-27T22:50:17.833Z,102130.44
2022-07-27T22:52:44.809Z,102118.44
2022-07-27T22:55:11.297Z,102129.44
2022-07-27T22:57:37.827Z,102119.94
2022-07-27T23:00:06.501Z,102127.06
2022-07-27T23:02:34.225Z,102125.59
2022-07-27T23:05:00.799Z,102121.97
2022-07-27T23:07:27.569Z,102123.56
2022-07-27T23:09:54.096Z,102117.41
2022-07-27T23:12:23.869Z,102114.44
2022-07-27T23:14:50.383Z,102119.41
2022-07-27T23:17:16.907Z,102125.06
2022-07-27T23:19:43.426Z,102118.44
2022-07-27T23:22:11.481Z,102123.28
2022-07-27T23:24:38.228Z,102117.91
2022-07-27T23:27:07.574Z,102118.13
2022-07-27T23:29:34.072Z,102104.72
2022-07-27T23:32:02.524Z,102109.41
2022-07-27T23:34:29.180Z,102113.44
2022-07-27T23:36:56.212Z,102108.16
2022-07-27T23:39:22.923Z,102107.69
2022-07-27T23:41:50.081Z,102098.13
2022-07-27T23:44:17.362Z,102101.19
2022-07-27T23:46:44.091Z,102094.53
2022-07-27T23:49:10.876Z,102100.19
2022-07-27T23:51:37.465Z,102100.81
2022-07-27T23:54:04.115Z,102091.88
2022-07-27T23:56:30.628Z,102100.81
2022-07-27T23:58:57.442Z,102108.25
